Airfield :
LOGIN :

Register | Disclaimer

   EN    FR    IT 

 










Legend :    VFR   Marginal VFR   IFR   Intensive IFR   Very Intensive IFR
Visi :
Ceiling :
>= 8 km
>= 3000ft
5 to 8 km
1000 to 3000 ft
1500m to 5 km
500 to 1000 ft
800 to 1500m
200 to 500 ft
< 800m
< 200 ft
Symbols :   Thunderstorms  Fog  Heavy snow  Heavy precipitations  Wind > 20 kt
SIGMETs :     Misc.  Thunderstorms  Icing  Turbulence  Mountain Waves  Volcanic Ashes






- Airport Elevation : 280 ft
- IATA code : FAE


EKVG - Vagar

CURRENT METAR :
  • 080620Z AUTO 27023G33KT 9999 -RA BKN017/// BKN110/// 03/00 Q1012

EXPIRED METARs :
  • 080550Z AUTO 26017G28KT 9999 FEW013/// BKN022/// 04/00 Q1012
  • 080520Z AUTO 26016G30KT 220V300 6000 -RA FEW016/// BKN027/// 03/M01 Q1012
  • 080450Z AUTO 27015G32KT 9999 -RA BKN025/// 03/00 Q1011
  • 080420Z AUTO 27017KT 9999 BKN018/// 04/00 Q1011
  • 080350Z AUTO 25010KT 9999 BKN018/// 04/00 Q1011

TAF TAF EKVG
Valid from the 08 at 06:00 until the 08 at 15:00 UTC


080512Z 0806/0815 27020G35KT 9999 -SHRA FEW018 BKN025
TEMPO 0806/0812 4000 SHRASN BKN008TCU
BECMG 0810/0812 30015G25KT
BECMG 0813/0815 33012KT



MET'MAP, your aeronautical weather chart ! - Copyright ORBIFLY December 2007 - Disclaimer

ORBIFLY MET'MAP TEAM :

Programming & Development : Alexandra Zaïnal
Concept & original design : Baudouin d'Aumeries
Assistance for programming : Marc-Olivier Méhu
Technical & hardware support : Manuel Goepfert

Contact : metmap@orbifly.com




SOURCES & CREDITS :

   NOAA